Time;durP1;ratioP1;P1;durP2;ratioP2;P2;SDS_P1;SDS_P2;PMS_P1;PMS_P2;Temp;Humidity;BMP_temperature;BMP_pressure;BME280_temperature;BME280_humidity;BME280_pressure;Samples;Min_cycle;Max_cycle;Signal;HPM_P1;HPM_P2
2023/04/26 00:02:21;;;;;;;22.58;13.73;;;;;;;2.92;91.79;101822.97;5070421;28;20089;-45
2023/04/26 00:04:50;;;;;;;24.00;13.80;;;;;;;2.90;92.52;101825.94;5070641;28;20142;-46
2023/04/26 00:07:16;;;;;;;24.70;14.02;;;;;;;2.88;92.09;101824.50;5070554;28;20036;-46
2023/04/26 00:09:43;;;;;;;27.92;14.52;;;;;;;2.86;91.84;101830.19;5070629;28;20433;-46
2023/04/26 00:12:10;;;;;;;24.83;14.50;;;;;;;2.87;92.37;101825.56;5070721;28;20025;-46
2023/04/26 00:14:36;;;;;;;24.60;14.48;;;;;;;2.83;92.49;101821.63;5069484;28;20121;-46
2023/04/26 00:17:03;;;;;;;23.40;14.02;;;;;;;2.79;92.83;101823.97;5069993;28;20132;-46
2023/04/26 00:19:28;;;;;;;23.92;14.27;;;;;;;2.76;92.89;101830.75;5070779;28;20025;-45
2023/04/26 00:21:53;;;;;;;24.52;14.55;;;;;;;2.73;93.78;101823.00;5068998;28;20070;-47
2023/04/26 00:24:19;;;;;;;25.05;14.60;;;;;;;2.70;93.62;101826.19;5070545;28;20099;-46
2023/04/26 00:26:45;;;;;;;24.13;14.07;;;;;;;2.69;93.91;101818.22;5065543;28;20101;-45
2023/04/26 00:29:10;;;;;;;23.90;13.98;;;;;;;2.64;93.34;101829.84;5053055;28;20043;-45
2023/04/26 00:31:35;;;;;;;25.02;14.43;;;;;;;2.61;93.98;101828.41;5054453;28;20048;-45
2023/04/26 00:34:01;;;;;;;22.52;13.55;;;;;;;2.60;94.39;101828.59;5054253;28;20039;-45
2023/04/26 00:36:26;;;;;;;23.17;13.57;;;;;;;2.60;94.82;101818.53;5053815;28;20029;-45
2023/04/26 00:38:51;;;;;;;23.88;14.77;;;;;;;2.62;94.59;101826.50;5054170;28;20033;-45
2023/04/26 00:41:17;;;;;;;23.27;13.55;;;;;;;2.58;94.29;101831.59;5054153;28;20028;-46
2023/04/26 00:43:42;;;;;;;23.15;14.18;;;;;;;2.57;94.39;101829.09;5054038;28;20111;-45
2023/04/26 00:46:08;;;;;;;24.17;13.82;;;;;;;2.56;94.16;101830.16;5050821;28;20036;-44
2023/04/26 00:48:35;;;;;;;23.02;14.35;;;;;;;2.52;94.54;101821.56;5050453;28;20025;-44
2023/04/26 00:51:01;;;;;;;25.00;13.52;;;;;;;2.47;94.82;101830.44;5053528;28;20068;-44
2023/04/26 00:53:29;;;;;;;25.85;14.27;;;;;;;2.40;94.25;101826.13;5053949;28;20564;-44
2023/04/26 00:55:54;;;;;;;24.35;14.88;;;;;;;2.33;94.75;101826.19;5053726;28;20456;-45
2023/04/26 00:58:20;;;;;;;23.42;13.50;;;;;;;2.29;95.20;101824.97;5053662;28;20043;-47
2023/04/26 01:00:45;;;;;;;25.27;15.32;;;;;;;2.24;95.26;101824.81;5053681;28;20107;-44
2023/04/26 01:03:11;;;;;;;23.23;14.27;;;;;;;2.19;96.04;101828.22;5053678;28;20025;-47
2023/04/26 01:05:40;;;;;;;25.23;15.35;;;;;;;2.12;96.54;101820.13;5053637;28;20491;-46
2023/04/26 01:08:05;;;;;;;23.50;14.80;;;;;;;2.07;96.72;101827.31;5053528;28;20126;-45
2023/04/26 01:10:31;;;;;;;23.45;14.77;;;;;;;2.05;96.82;101818.50;5053556;28;20049;-45
2023/04/26 01:12:57;;;;;;;26.67;14.82;;;;;;;2.00;96.93;101820.00;5073290;28;20103;-45
2023/04/26 01:15:23;;;;;;;23.20;14.48;;;;;;;1.96;97.22;101812.47;5073512;28;20406;-47
2023/04/26 01:17:49;;;;;;;24.50;15.05;;;;;;;1.97;97.96;101825.06;5054566;28;20525;-47
2023/04/26 01:20:15;;;;;;;26.13;14.00;;;;;;;1.92;97.82;101823.03;5051971;28;20102;-46
2023/04/26 01:22:40;;;;;;;21.80;13.90;;;;;;;1.90;97.34;101827.84;5051640;28;20024;-45
2023/04/26 01:25:08;;;;;;;23.10;13.65;;;;;;;1.90;97.82;101836.03;5053271;28;20036;-45
2023/04/26 01:27:34;;;;;;;23.83;13.88;;;;;;;1.89;98.04;101828.91;5053248;28;20048;-45
2023/04/26 01:30:00;;;;;;;23.63;14.00;;;;;;;1.88;98.16;101827.28;5051758;28;20029;-46
2023/04/26 01:32:25;;;;;;;24.52;15.35;;;;;;;1.86;98.39;101826.66;5053317;28;20039;-45
2023/04/26 01:34:50;;;;;;;23.42;14.43;;;;;;;1.86;98.06;101834.84;5051600;28;20024;-45
2023/04/26 01:37:16;;;;;;;25.13;15.00;;;;;;;1.81;98.88;101827.31;5052706;28;20029;-46
2023/04/26 01:39:41;;;;;;;26.52;15.27;;;;;;;1.77;98.45;101837.00;5051581;28;20036;-46
2023/04/26 01:42:06;;;;;;;23.60;13.70;;;;;;;1.71;98.87;101833.25;5053028;28;20108;-49
2023/04/26 01:44:32;;;;;;;23.52;15.68;;;;;;;1.65;99.08;101831.44;5052822;28;20035;-45
2023/04/26 01:46:57;;;;;;;26.25;14.90;;;;;;;1.63;99.24;101832.72;5058792;28;20037;-51
2023/04/26 01:49:23;;;;;;;23.88;14.63;;;;;;;1.54;99.27;101830.28;5072531;28;20062;-46
2023/04/26 01:51:48;;;;;;;22.60;13.90;;;;;;;1.56;99.56;101836.31;5064376;28;20021;-46
2023/04/26 01:54:13;;;;;;;25.08;15.45;;;;;;;1.56;100.00;101840.94;5052651;28;20033;-47
2023/04/26 01:56:39;;;;;;;23.30;14.57;;;;;;;1.58;99.89;101833.38;5052531;28;20524;-45
2023/04/26 01:59:04;;;;;;;23.65;14.50;;;;;;;1.54;100.00;101832.16;5050996;28;20107;-46
2023/04/26 02:01:30;;;;;;;25.65;14.95;;;;;;;1.52;100.00;101837.81;5052613;28;20063;-45
2023/04/26 02:03:55;;;;;;;24.05;15.07;;;;;;;1.47;100.00;101834.91;5052559;28;20477;-46
2023/04/26 02:06:20;;;;;;;22.63;14.10;;;;;;;1.43;100.00;101836.44;5052477;28;20473;-45
2023/04/26 02:08:46;;;;;;;25.20;14.95;;;;;;;1.44;100.00;101835.38;5052377;28;20516;-44
2023/04/26 02:11:11;;;;;;;23.38;14.00;;;;;;;1.42;100.00;101831.19;5052418;28;20440;-46
2023/04/26 02:13:37;;;;;;;25.67;13.75;;;;;;;1.44;100.00;101831.78;5052205;28;20039;-44
2023/04/26 02:16:02;;;;;;;23.98;13.80;;;;;;;1.42;100.00;101831.19;5050950;28;20067;-47
2023/04/26 02:18:28;;;;;;;25.65;14.20;;;;;;;1.44;100.00;101831.78;5050884;28;20403;-47
2023/04/26 02:20:54;;;;;;;24.80;14.25;;;;;;;1.40;100.00;101831.41;5052014;28;20025;-47
2023/04/26 02:23:20;;;;;;;23.80;13.80;;;;;;;1.40;100.00;101834.97;5052185;28;20095;-46
2023/04/26 02:25:47;;;;;;;22.90;13.63;;;;;;;1.42;100.00;101839.38;5051920;28;20028;-47
2023/04/26 02:28:13;;;;;;;24.80;14.10;;;;;;;1.38;100.00;101828.06;5051884;28;20028;-47
2023/04/26 02:30:39;;;;;;;25.63;14.95;;;;;;;1.38;100.00;101830.78;5051887;28;20154;-46
2023/04/26 02:33:04;;;;;;;23.95;14.73;;;;;;;1.38;100.00;101826.19;5068359;28;20032;-48
2023/04/26 02:35:30;;;;;;;22.83;14.50;;;;;;;1.35;100.00;101832.06;5070334;28;20077;-45
2023/04/26 02:37:55;;;;;;;24.30;13.30;;;;;;;1.31;100.00;101832.72;5056455;28;20041;-45
2023/04/26 02:40:20;;;;;;;25.25;14.35;;;;;;;1.29;100.00;101827.50;5050269;28;20031;-46
2023/04/26 02:42:47;;;;;;;22.77;14.80;;;;;;;1.27;100.00;101817.88;5063382;28;20193;-45
2023/04/26 02:45:12;;;;;;;23.63;14.18;;;;;;;1.29;100.00;101822.03;5067332;28;20392;-48
2023/04/26 02:47:38;;;;;;;22.27;13.68;;;;;;;1.28;100.00;101817.66;5070406;28;20032;-45
2023/04/26 02:50:04;;;;;;;22.30;13.30;;;;;;;1.28;100.00;101814.06;5070254;28;20100;-44
2023/04/26 02:52:30;;;;;;;22.90;14.60;;;;;;;1.28;100.00;101819.53;5071270;28;20492;-45
2023/04/26 02:54:55;;;;;;;24.85;15.32;;;;;;;1.24;100.00;101819.13;5071577;28;20081;-44
2023/04/26 02:57:21;;;;;;;24.83;14.63;;;;;;;1.21;100.00;101816.88;5069466;28;20029;-45
2023/04/26 02:59:46;;;;;;;21.75;13.93;;;;;;;1.16;100.00;101816.66;5071484;28;20060;-44
2023/04/26 03:02:11;;;;;;;23.85;14.88;;;;;;;1.08;100.00;101813.16;5071099;28;20028;-44
2023/04/26 03:04:37;;;;;;;24.25;14.13;;;;;;;1.06;100.00;101812.53;5071449;28;20033;-43
2023/04/26 03:07:03;;;;;;;23.38;14.38;;;;;;;1.01;100.00;101804.19;5065075;28;20045;-45
2023/04/26 03:09:28;;;;;;;22.50;14.30;;;;;;;0.98;100.00;101814.69;5049903;28;20037;-44
2023/04/26 03:11:54;;;;;;;25.90;13.70;;;;;;;0.95;100.00;101809.66;5051018;28;20029;-45
2023/04/26 03:14:19;;;;;;;23.80;14.77;;;;;;;0.92;100.00;101811.75;5051038;28;20048;-45
2023/04/26 03:16:44;;;;;;;24.02;13.88;;;;;;;0.90;100.00;101811.13;5049841;28;20033;-47
2023/04/26 03:19:10;;;;;;;26.20;14.48;;;;;;;0.88;100.00;101807.81;5051093;28;20040;-43
2023/04/26 03:21:35;;;;;;;22.45;14.02;;;;;;;0.86;100.00;101803.63;5051206;28;20766;-46
2023/04/26 03:24:01;;;;;;;23.73;14.43;;;;;;;0.84;100.00;101813.91;5051246;28;20035;-43
2023/04/26 03:26:26;;;;;;;26.83;15.40;;;;;;;0.80;100.00;101810.81;5050964;28;20147;-45
2023/04/26 03:28:51;;;;;;;22.67;14.45;;;;;;;0.76;100.00;101802.19;5051040;28;20212;-46
2023/04/26 03:31:17;;;;;;;23.05;14.18;;;;;;;0.76;100.00;101806.81;5051080;28;20105;-46
2023/04/26 03:33:42;;;;;;;24.33;14.98;;;;;;;0.74;100.00;101807.06;5051019;28;20143;-46
2023/04/26 03:36:08;;;;;;;23.60;14.85;;;;;;;0.72;100.00;101798.25;5050705;28;20469;-45
2023/04/26 03:38:33;;;;;;;26.73;15.00;;;;;;;0.66;100.00;101803.72;5050469;28;20107;-45
2023/04/26 03:40:58;;;;;;;24.10;14.75;;;;;;;0.60;100.00;101803.56;5050601;28;20041;-45
2023/04/26 03:43:24;;;;;;;24.05;14.50;;;;;;;0.51;100.00;101793.94;5045264;28;20112;-45
2023/04/26 03:45:50;;;;;;;26.38;14.88;;;;;;;0.51;100.00;101801.28;5049136;28;20029;-47
2023/04/26 03:48:16;;;;;;;22.58;14.55;;;;;;;0.46;100.00;101794.59;5050491;28;20021;-46
2023/04/26 03:50:43;;;;;;;24.10;14.95;;;;;;;0.45;100.00;101797.50;5050339;28;20087;-45
2023/04/26 03:53:09;;;;;;;23.55;14.68;;;;;;;0.38;100.00;101794.81;5050908;28;20036;-45
2023/04/26 03:55:35;;;;;;;24.92;13.68;;;;;;;0.39;100.00;101796.47;5049360;28;20029;-46
2023/04/26 03:58:02;;;;;;;23.23;13.90;;;;;;;0.35;100.00;101797.97;5050439;28;20045;-45
2023/04/26 04:00:27;;;;;;;23.52;14.80;;;;;;;0.29;100.00;101799.66;5051554;28;20071;-46
2023/04/26 04:02:52;;;;;;;24.10;15.23;;;;;;;0.29;100.00;101806.97;5052783;28;20055;-46
2023/04/26 04:05:18;;;;;;;23.35;14.73;;;;;;;0.27;100.00;101809.09;5054100;28;20048;-46
2023/04/26 04:07:43;;;;;;;25.58;15.00;;;;;;;0.27;100.00;101804.47;5054199;28;20105;-47
2023/04/26 04:10:09;;;;;;;23.50;14.98;;;;;;;0.29;100.00;101807.84;5054312;28;20453;-46
2023/04/26 04:12:35;;;;;;;25.98;16.02;;;;;;;0.30;100.00;101797.78;5053806;28;20029;-45
2023/04/26 04:15:00;;;;;;;24.33;16.23;;;;;;;0.26;100.00;101800.09;5053821;28;20112;-47
2023/04/26 04:17:26;;;;;;;27.33;15.60;;;;;;;0.22;100.00;101801.56;5054052;28;20538;-45
2023/04/26 04:19:51;;;;;;;23.52;14.93;;;;;;;0.20;100.00;101800.94;5054049;28;20025;-47
2023/04/26 04:22:16;;;;;;;25.90;15.50;;;;;;;0.20;100.00;101802.81;5054202;28;20488;-45
2023/04/26 04:24:43;;;;;;;25.45;15.90;;;;;;;0.21;100.00;101807.22;5054054;28;20033;-46
2023/04/26 04:27:08;;;;;;;24.70;14.90;;;;;;;0.23;100.00;101808.69;5052572;28;20132;-44
2023/04/26 04:29:33;;;;;;;22.95;13.98;;;;;;;0.25;100.00;101805.75;5052552;28;20040;-46
2023/04/26 04:31:59;;;;;;;26.10;15.18;;;;;;;0.27;100.00;101815.38;5053778;28;20036;-47
2023/04/26 04:34:25;;;;;;;24.73;14.65;;;;;;;0.28;100.00;101800.72;5053963;28;20040;-44
2023/04/26 04:36:50;;;;;;;26.27;15.00;;;;;;;0.33;100.00;101805.53;5053250;28;20036;-45
2023/04/26 04:39:16;;;;;;;28.15;15.27;;;;;;;0.35;100.00;101811.59;5053603;28;20046;-46
2023/04/26 04:41:46;;;;;;;25.75;14.63;;;;;;;0.37;100.00;101817.66;5053715;28;20047;-44
2023/04/26 04:44:16;;;;;;;26.00;14.25;;;;;;;0.42;100.00;101815.13;5072330;28;20050;-44
2023/04/26 04:46:42;;;;;;;23.55;14.32;;;;;;;0.47;100.00;101820.75;5070436;28;20033;-45
2023/04/26 04:49:11;;;;;;;26.13;15.60;;;;;;;0.54;100.00;101826.19;5054653;28;20029;-45
2023/04/26 04:51:37;;;;;;;26.00;14.75;;;;;;;0.57;100.00;101828.47;5053823;28;20206;-45
2023/04/26 04:54:16;;;;;;;27.27;14.85;;;;;;;0.61;100.00;101820.72;5053906;28;20385;-45
2023/04/26 04:56:43;;;;;;;24.80;14.82;;;;;;;0.70;100.00;101824.88;5052443;28;20025;-44
2023/04/26 04:59:08;;;;;;;24.52;14.30;;;;;;;0.78;100.00;101824.63;5053252;28;20021;-44
2023/04/26 05:01:37;;;;;;;29.00;14.77;;;;;;;0.88;100.00;101835.06;5053536;28;20449;-44
2023/04/26 05:04:03;;;;;;;26.45;16.65;;;;;;;0.96;100.00;101831.25;5053517;28;20037;-45
2023/04/26 05:06:30;;;;;;;27.63;15.73;;;;;;;1.04;100.00;101832.88;5053367;28;20364;-46
2023/04/26 05:08:56;;;;;;;27.08;15.07;;;;;;;1.13;100.00;101834.31;5053420;28;20025;-44
2023/04/26 05:11:22;;;;;;;25.70;14.68;;;;;;;1.28;100.00;101838.59;5052422;28;20104;-45
2023/04/26 05:13:47;;;;;;;25.55;15.85;;;;;;;1.38;100.00;101834.38;5066650;28;20028;-45
2023/04/26 05:16:13;;;;;;;27.90;15.85;;;;;;;1.47;100.00;101834.09;5073006;28;20109;-45
2023/04/26 05:18:38;;;;;;;27.17;15.52;;;;;;;1.56;100.00;101838.22;5073036;28;20030;-46
2023/04/26 05:21:04;;;;;;;28.08;16.30;;;;;;;1.64;100.00;101845.31;5068442;28;20033;-47
2023/04/26 05:23:30;;;;;;;26.23;15.23;;;;;;;1.75;100.00;101839.09;5053241;28;20029;-45
2023/04/26 05:25:55;;;;;;;26.55;15.43;;;;;;;1.84;100.00;101845.13;5052990;28;20053;-52
2023/04/26 05:28:20;;;;;;;27.80;15.52;;;;;;;1.92;100.00;101841.31;5052983;28;20037;-46
2023/04/26 05:30:46;;;;;;;29.13;15.57;;;;;;;1.97;100.00;101842.31;5042101;28;20025;-44
2023/04/26 05:33:11;;;;;;;27.77;16.05;;;;;;;2.07;100.00;101838.22;5045769;28;20026;-45
2023/04/26 05:35:36;;;;;;;26.17;14.95;;;;;;;2.11;100.00;101839.44;5044386;28;20053;-47
2023/04/26 05:38:02;;;;;;;27.20;15.02;;;;;;;2.18;100.00;101837.47;5055871;28;20165;-46
2023/04/26 05:40:28;;;;;;;28.45;15.80;;;;;;;2.21;100.00;101837.03;5043750;28;20028;-45
2023/04/26 05:42:53;;;;;;;25.85;15.43;;;;;;;2.23;100.00;101837.63;5038825;28;20028;-45
2023/04/26 05:45:18;;;;;;;30.65;16.35;;;;;;;2.27;100.00;101846.22;5035353;28;20152;-45
2023/04/26 05:47:44;;;;;;;26.33;15.75;;;;;;;2.31;100.00;101852.91;5052877;28;20028;-44
2023/04/26 05:50:09;;;;;;;26.65;15.38;;;;;;;2.36;100.00;101852.22;5052338;28;20040;-47
2023/04/26 05:52:34;;;;;;;27.95;15.70;;;;;;;2.37;100.00;101852.00;5048156;28;20851;-45
2023/04/26 05:55:04;;;;;;;25.38;15.60;;;;;;;2.38;100.00;101856.41;5046678;28;20052;-47
2023/04/26 05:57:30;;;;;;;28.40;15.95;;;;;;;2.42;100.00;101859.50;5052649;28;20384;-44
2023/04/26 05:59:55;;;;;;;25.70;15.30;;;;;;;2.42;100.00;101862.25;5048430;28;20518;-48
2023/04/26 06:02:21;;;;;;;25.52;15.02;;;;;;;2.36;100.00;101844.03;5052350;28;20029;-45
2023/04/26 06:04:46;;;;;;;25.15;14.80;;;;;;;2.46;100.00;101853.38;5052533;28;20051;-46
2023/04/26 06:07:11;;;;;;;27.10;15.20;;;;;;;2.54;100.00;101854.13;5050680;28;20111;-45
2023/04/26 06:09:37;;;;;;;24.83;15.02;;;;;;;2.64;100.00;101849.81;5052140;28;20375;-46
2023/04/26 06:12:03;;;;;;;26.58;15.35;;;;;;;2.80;100.00;101851.06;5052365;28;20155;-46
2023/04/26 06:14:28;;;;;;;28.33;15.68;;;;;;;2.96;100.00;101849.63;5052207;28;20056;-46
2023/04/26 06:16:53;;;;;;;25.77;15.23;;;;;;;3.13;100.00;101848.97;5050647;28;20033;-45
2023/04/26 06:19:19;;;;;;;25.95;14.73;;;;;;;3.28;100.00;101851.28;5052141;28;20044;-46
2023/04/26 06:21:44;;;;;;;25.02;15.30;;;;;;;3.47;100.00;101853.97;5052202;28;20028;-45
2023/04/26 06:24:09;;;;;;;26.20;15.57;;;;;;;3.63;100.00;101849.72;5052117;28;20039;-46
2023/04/26 06:26:35;;;;;;;26.23;15.70;;;;;;;3.79;100.00;101851.78;5051697;28;20418;-45
2023/04/26 06:29:00;;;;;;;27.40;15.80;;;;;;;3.94;100.00;101847.75;5052029;28;20029;-45
2023/04/26 06:31:25;;;;;;;26.48;14.85;;;;;;;4.05;100.00;101846.94;5051728;28;20028;-44
2023/04/26 06:33:51;;;;;;;24.23;14.82;;;;;;;4.14;99.18;101851.00;5050357;28;20074;-48
2023/04/26 06:36:16;;;;;;;25.08;15.02;;;;;;;4.21;98.79;101856.31;5051675;28;20039;-46
2023/04/26 06:38:41;;;;;;;27.13;15.00;;;;;;;4.27;99.07;101858.13;5051819;28;20029;-45
2023/04/26 06:41:07;;;;;;;25.45;14.35;;;;;;;4.37;98.72;101865.72;5051794;28;20031;-46
2023/04/26 06:43:33;;;;;;;25.45;15.15;;;;;;;4.47;97.92;101862.41;5051816;28;20439;-46
2023/04/26 06:45:58;;;;;;;27.23;15.30;;;;;;;4.59;97.21;101870.59;5050499;28;20473;-46
2023/04/26 06:48:23;;;;;;;25.83;15.40;;;;;;;4.72;96.69;101877.72;5050265;28;20036;-47
2023/04/26 06:50:49;;;;;;;26.13;15.48;;;;;;;4.85;96.78;101874.75;5051782;28;20102;-46
2023/04/26 06:53:14;;;;;;;26.17;15.40;;;;;;;4.94;96.13;101870.53;5051699;28;20039;-44
2023/04/26 06:55:39;;;;;;;24.92;14.18;;;;;;;5.09;95.59;101875.50;5047522;28;20037;-47
2023/04/26 06:58:05;;;;;;;24.42;14.70;;;;;;;5.23;95.80;101870.56;5051617;28;20021;-44
2023/04/26 07:00:30;;;;;;;25.90;15.05;;;;;;;5.39;95.14;101868.09;5051098;28;20044;-47
2023/04/26 07:02:56;;;;;;;25.00;13.52;;;;;;;5.49;92.82;101876.53;5051200;28;20052;-48
2023/04/26 07:05:21;;;;;;;25.00;13.48;;;;;;;5.59;91.96;101875.84;5049780;28;20060;-45
2023/04/26 07:07:46;;;;;;;24.55;13.65;;;;;;;5.65;91.29;101874.03;5049587;28;20032;-46
2023/04/26 07:10:12;;;;;;;23.88;13.57;;;;;;;5.70;91.11;101880.44;5069868;28;20426;-50
2023/04/26 07:12:38;;;;;;;22.20;13.18;;;;;;;5.77;90.99;101880.31;5071326;28;20107;-46
2023/04/26 07:15:05;;;;;;;23.77;14.27;;;;;;;5.85;90.17;101882.63;5071002;28;20087;-45
2023/04/26 07:17:31;;;;;;;28.33;15.95;;;;;;;5.97;88.89;101884.47;5070899;28;20039;-46
2023/04/26 07:19:56;;;;;;;25.40;14.43;;;;;;;6.06;88.46;101880.25;5064965;28;20029;-45
2023/04/26 07:22:23;;;;;;;23.95;14.00;;;;;;;6.08;87.23;101878.09;5051247;28;20350;-45
2023/04/26 07:24:48;;;;;;;24.10;13.13;;;;;;;6.17;87.37;101878.50;5051183;28;20128;-45
2023/04/26 07:27:13;;;;;;;22.15;13.38;;;;;;;6.22;85.50;101881.34;5051033;28;20124;-46
2023/04/26 07:29:39;;;;;;;23.85;13.35;;;;;;;6.31;86.14;101882.56;5049779;28;20030;-49
2023/04/26 07:32:04;;;;;;;22.20;12.57;;;;;;;6.38;84.85;101872.22;5049750;28;20025;-48
2023/04/26 07:34:30;;;;;;;23.00;13.43;;;;;;;6.47;83.36;101877.28;5048098;28;20068;-46
2023/04/26 07:36:56;;;;;;;21.20;12.40;;;;;;;6.69;83.11;101874.56;5049527;28;20453;-47
2023/04/26 07:39:21;;;;;;;23.73;11.95;;;;;;;6.85;81.61;101881.94;5049487;28;20067;-46
2023/04/26 07:41:47;;;;;;;24.63;12.40;;;;;;;6.92;82.28;101878.16;5049538;28;20388;-47
2023/04/26 07:44:12;;;;;;;22.58;12.68;;;;;;;7.00;83.01;101873.03;5049414;28;20485;-49
2023/04/26 07:46:38;;;;;;;24.75;12.32;;;;;;;7.13;82.95;101873.75;5049484;28;20037;-50
2023/04/26 07:49:03;;;;;;;22.73;12.05;;;;;;;7.21;80.79;101873.28;5049212;28;20056;-46
2023/04/26 07:51:28;;;;;;;20.23;10.80;;;;;;;7.29;79.31;101869.25;5024111;28;20052;-46
2023/04/26 07:53:56;;;;;;;20.27;10.35;;;;;;;7.39;76.57;101876.75;5035117;28;20068;-51
2023/04/26 07:56:23;;;;;;;20.65;10.63;;;;;;;7.43;73.47;101878.75;5049482;28;20025;-50
2023/04/26 07:58:48;;;;;;;20.27;10.57;;;;;;;7.47;73.58;101876.28;5049548;28;20044;-49
2023/04/26 08:01:14;;;;;;;19.65;10.57;;;;;;;7.46;72.50;101872.72;5049396;28;20033;-45
2023/04/26 08:03:40;;;;;;;20.73;11.23;;;;;;;7.48;73.91;101876.06;5049577;28;20056;-45
2023/04/26 08:06:07;;;;;;;17.88;10.07;;;;;;;7.52;70.87;101876.38;5049345;28;20044;-51
2023/04/26 08:08:34;;;;;;;18.52;9.75;;;;;;;7.58;70.08;101877.25;5047950;28;20035;-45
2023/04/26 08:10:59;;;;;;;17.50;9.60;;;;;;;7.67;70.29;101875.69;5049692;28;20818;-49
2023/04/26 08:13:24;;;;;;;19.10;9.23;;;;;;;7.73;70.31;101885.66;5046071;28;20025;-47
2023/04/26 08:15:49;;;;;;;18.25;9.77;;;;;;;7.68;69.21;101884.75;5047238;28;20063;-48
2023/04/26 08:18:15;;;;;;;19.08;9.43;;;;;;;7.60;69.10;101892.41;5047135;28;20063;-47
2023/04/26 08:20:40;;;;;;;21.23;9.88;;;;;;;7.59;68.33;101890.75;5047006;28;20045;-48
2023/04/26 08:23:05;;;;;;;18.05;8.48;;;;;;;7.66;68.48;101890.53;5047123;28;20419;-46
2023/04/26 08:25:33;;;;;;;18.23;9.00;;;;;;;7.87;66.74;101886.03;5046284;28;20044;-46
2023/04/26 08:27:59;;;;;;;19.80;8.05;;;;;;;7.97;65.00;101888.88;5046985;28;20073;-45
2023/04/26 08:30:24;;;;;;;18.33;8.40;;;;;;;7.90;63.33;101890.19;5047775;28;20060;-47
2023/04/26 08:32:49;;;;;;;15.43;8.13;;;;;;;7.94;63.38;101883.06;5047719;28;20456;-49
2023/04/26 08:35:15;;;;;;;16.70;8.20;;;;;;;8.08;62.50;101877.94;5046877;28;20152;-46
2023/04/26 08:37:40;;;;;;;13.90;8.15;;;;;;;8.23;64.51;101889.06;5046626;28;20043;-49
2023/04/26 08:40:09;;;;;;;16.15;8.43;;;;;;;8.30;63.11;101883.34;5049005;28;20170;-46
2023/04/26 08:42:38;;;;;;;17.58;8.90;;;;;;;8.24;62.70;101876.13;5047679;28;20035;-47
2023/04/26 08:45:05;;;;;;;16.65;8.77;;;;;;;8.15;63.33;101880.50;5049088;28;20123;-47
2023/04/26 08:47:44;;;;;;;15.57;9.38;;;;;;;8.06;64.03;101882.88;5050364;28;20025;-47
2023/04/26 08:50:13;;;;;;;17.80;9.35;;;;;;;7.89;64.08;101875.59;5052713;28;20029;-48
2023/04/26 08:52:39;;;;;;;17.05;8.90;;;;;;;7.78;63.57;101869.19;5050877;28;20040;-47
2023/04/26 08:55:07;;;;;;;16.38;8.90;;;;;;;7.66;63.90;101871.25;5052707;28;20028;-46
2023/04/26 08:57:32;;;;;;;17.88;9.02;;;;;;;7.69;65.00;101878.16;5052620;28;20526;-48
2023/04/26 08:59:58;;;;;;;20.20;9.15;;;;;;;7.72;64.32;101878.47;5052299;28;20037;-46
2023/04/26 09:02:23;;;;;;;14.10;9.23;;;;;;;7.81;63.35;101876.91;5051023;28;20040;-45
2023/04/26 09:04:50;;;;;;;16.88;8.85;;;;;;;7.87;64.08;101876.97;5050807;28;20052;-46
2023/04/26 09:07:43;;;;;;;18.38;9.73;;;;;;;7.85;64.99;101877.19;5052389;28;20457;-47
2023/04/26 09:10:10;;;;;;;26.85;13.75;;;;;;;7.89;64.85;101874.75;5049244;28;20112;-48
2023/04/26 09:12:35;;;;;;;23.90;11.93;;;;;;;7.93;64.42;101864.88;5052194;28;20036;-47
2023/04/26 09:15:03;;;;;;;28.23;14.55;;;;;;;7.97;64.42;101871.53;5052002;28;20033;-46
2023/04/26 09:17:30;;;;;;;30.50;15.32;;;;;;;7.97;63.38;101869.59;5034071;28;20541;-46
2023/04/26 09:19:56;;;;;;;39.15;21.40;;;;;;;8.10;62.81;101862.81;5052209;28;20070;-45
2023/04/26 09:22:31;;;;;;;22.40;10.45;;;;;;;8.28;62.26;101874.50;5052353;28;20033;-46
2023/04/26 09:24:57;;;;;;;18.88;9.00;;;;;;;8.45;62.89;101860.56;5051951;28;20496;-47
2023/04/26 09:27:42;;;;;;;16.88;9.32;;;;;;;8.63;61.89;101856.56;5051801;28;20036;-46
2023/04/26 09:30:17;;;;;;;17.30;9.30;;;;;;;9.03;62.60;101854.22;5060692;28;20044;-46
2023/04/26 09:33:02;;;;;;;18.85;9.05;;;;;;;9.25;61.07;101850.44;5070039;28;20039;-45
2023/04/26 09:35:33;;;;;;;18.77;9.30;;;;;;;9.32;60.01;101849.06;5070134;28;20087;-45
2023/04/26 09:38:04;;;;;;;17.73;8.85;;;;;;;9.29;61.61;101855.13;5071762;28;20082;-48
2023/04/26 09:40:35;;;;;;;15.38;8.50;;;;;;;9.23;58.98;101860.91;5070890;28;20435;-47
2023/04/26 09:43:00;;;;;;;15.10;9.13;;;;;;;9.13;59.13;101865.31;5071388;28;20161;-47
2023/04/26 09:45:27;;;;;;;17.75;8.65;;;;;;;9.02;57.19;101866.38;5071351;28;20497;-46
2023/04/26 09:47:52;;;;;;;15.15;7.95;;;;;;;8.87;55.66;101867.13;5070013;28;20032;-47
2023/04/26 09:50:28;;;;;;;14.65;8.70;;;;;;;8.82;58.51;101867.94;5071245;28;20029;-46
2023/04/26 09:52:55;;;;;;;16.85;8.52;;;;;;;8.95;58.33;101866.59;5071740;28;20032;-44
2023/04/26 09:55:28;;;;;;;17.27;8.30;;;;;;;8.95;57.05;101861.09;5069760;28;20154;-47
2023/04/26 09:57:55;;;;;;;17.23;8.40;;;;;;;9.00;57.08;101865.81;5071071;28;20039;-47
2023/04/26 10:00:21;;;;;;;14.32;8.70;;;;;;;9.17;58.84;101862.81;5066377;28;20469;-46
2023/04/26 10:02:46;;;;;;;18.23;8.88;;;;;;;9.37;59.70;101851.00;5046962;28;20092;-46
2023/04/26 10:05:12;;;;;;;18.92;9.43;;;;;;;9.56;60.05;101847.69;5051133;28;20485;-47
2023/04/26 10:07:38;;;;;;;16.25;8.90;;;;;;;9.59;57.32;101853.50;5049734;28;20029;-48
2023/04/26 10:10:04;;;;;;;15.85;8.73;;;;;;;9.56;57.73;101854.06;5050992;28;20476;-46
2023/04/26 10:12:29;;;;;;;15.70;8.45;;;;;;;9.39;57.59;101859.03;5050623;28;20036;-47
2023/04/26 10:14:56;;;;;;;17.77;8.70;;;;;;;9.34;58.73;101851.56;5051586;28;20036;-51
2023/04/26 10:17:21;;;;;;;17.83;8.57;;;;;;;9.20;56.63;101856.78;5051476;28;20033;-47
2023/04/26 10:19:51;;;;;;;18.02;8.30;;;;;;;8.99;55.47;101858.63;5056371;28;20409;-49
2023/04/26 10:22:22;;;;;;;14.57;8.38;;;;;;;8.85;56.45;101861.91;5069983;28;20032;-46
2023/04/26 10:24:48;;;;;;;16.80;8.70;;;;;;;8.87;56.35;101864.38;5071058;28;20040;-49
2023/04/26 10:27:13;;;;;;;16.55;8.30;;;;;;;8.90;56.44;101864.66;5071404;28;20534;-46
2023/04/26 10:29:54;;;;;;;17.52;8.75;;;;;;;8.93;55.44;101868.81;5070968;28;20155;-49
2023/04/26 10:32:20;;;;;;;14.98;8.45;;;;;;;9.00;55.60;101849.25;5071390;28;20074;-46
2023/04/26 10:35:11;;;;;;;14.90;8.20;;;;;;;9.26;56.10;101854.84;5068266;28;20181;-51
2023/04/26 10:38:00;;;;;;;13.25;8.10;;;;;;;9.48;55.45;101849.09;5071023;28;20048;-48
2023/04/26 10:40:38;;;;;;;21.45;9.77;;;;;;;9.65;52.69;101849.66;5066938;28;20086;-46
2023/04/26 10:43:09;;;;;;;14.57;8.18;;;;;;;9.80;53.37;101846.06;5070503;28;20449;-45
2023/04/26 10:45:36;;;;;;;16.67;8.32;;;;;;;9.91;52.35;101844.13;5070523;28;20028;-46
2023/04/26 10:48:18;;;;;;;16.27;7.88;;;;;;;10.07;53.84;101846.88;5066516;28;20024;-47
2023/04/26 10:51:00;;;;;;;14.27;8.18;;;;;;;10.15;52.71;101846.34;5059419;28;20033;-50
2023/04/26 10:53:44;;;;;;;16.38;8.52;;;;;;;10.15;51.68;101829.75;5050783;28;20021;-48
2023/04/26 10:56:10;;;;;;;17.35;8.00;;;;;;;10.31;52.33;101827.75;5049528;28;20096;-45
2023/04/26 10:58:40;;;;;;;14.85;8.02;;;;;;;10.42;52.64;101828.59;5049774;28;20294;-47
2023/04/26 11:01:18;;;;;;;15.30;7.90;;;;;;;10.35;50.74;101833.53;5048434;28;20037;-48
2023/04/26 11:04:05;;;;;;;19.33;8.73;;;;;;;10.46;52.52;101832.44;5050356;28;20408;-46
2023/04/26 11:06:50;;;;;;;16.25;8.50;;;;;;;10.67;53.35;101835.16;5046184;28;20064;-46
2023/04/26 11:09:35;;;;;;;19.20;8.70;;;;;;;10.74;52.01;101841.22;5038762;28;20029;-47
2023/04/26 11:12:00;;;;;;;15.50;8.65;;;;;;;10.82;51.07;101834.25;5037705;28;20025;-46
2023/04/26 11:14:26;;;;;;;15.50;8.70;;;;;;;10.99;51.58;101833.91;5048733;28;20029;-48